Muldoon, Texas
Current Conditions -  °F | °C
As of 3:55 AM on Monday 26 Jan 2015 (Local Time) from K3T5 Reporting Station
Clear Clear  
Wind Chill: 44°   Ceiling: Unl
Heat Index: 46°   Visibility: 10mi
Dew Point: 34°   Wind: 5mph
Humidity: 63%   Direction: 270°W
Pressure: 30.19"   Gusts: NA
Location:  29.82°N, 97.07°W
Report Text: K3T5 260955Z AUTO 27004KT 10SM CLR 08/01 A3019 RMK AO2 T00800013
Loading
Personal Weather Stations






























Interactive Weather Map New forecast layout! Learn more

10-Day Weather Forecast

Advertisements
Track Severe Weather on mobile